createdAt,value
2017-11-22T00:00:30.261Z,7.20
2017-11-22T00:02:58.611Z,7.20
2017-11-22T00:05:26.382Z,7.10
2017-11-22T00:07:53.963Z,7.20
2017-11-22T00:10:22.353Z,7.20
2017-11-22T00:12:50.898Z,7.20
2017-11-22T00:15:18.520Z,7.10
2017-11-22T00:17:46.089Z,7.20
2017-11-22T00:20:13.648Z,7.10
2017-11-22T00:22:41.240Z,7.10
2017-11-22T00:25:08.800Z,7.20
2017-11-22T00:27:36.418Z,7.10
2017-11-22T00:30:03.994Z,7.10
2017-11-22T00:32:31.560Z,7.10
2017-11-22T00:34:59.145Z,7.10
2017-11-22T00:37:26.714Z,7.10
2017-11-22T00:39:54.384Z,7.10
2017-11-22T00:42:21.944Z,7.00
2017-11-22T00:44:51.146Z,7.00
2017-11-22T00:47:18.714Z,7.00
2017-11-22T00:49:47.069Z,6.90
2017-11-22T00:52:14.649Z,6.90
2017-11-22T00:54:42.242Z,6.90
2017-11-22T00:57:09.809Z,6.90
2017-11-22T00:59:39.780Z,6.90
2017-11-22T01:02:07.353Z,6.90
2017-11-22T01:04:35.713Z,6.90
2017-11-22T01:07:03.285Z,6.90
2017-11-22T01:09:30.869Z,6.90
2017-11-22T01:11:59.201Z,6.80
2017-11-22T01:14:26.777Z,6.80
2017-11-22T01:16:54.365Z,6.90
2017-11-22T01:19:22.698Z,6.80
2017-11-22T01:21:50.493Z,6.80
2017-11-22T01:24:18.073Z,6.80
2017-11-22T01:26:45.669Z,6.80
2017-11-22T01:29:13.257Z,6.80
2017-11-22T01:31:41.712Z,6.90
2017-11-22T01:34:09.305Z,6.80
2017-11-22T01:36:36.878Z,6.90
2017-11-22T01:39:04.505Z,6.80
2017-11-22T01:41:32.070Z,6.80
2017-11-22T01:43:59.697Z,6.80
2017-11-22T01:46:27.261Z,6.80
2017-11-22T01:48:54.877Z,6.80
2017-11-22T01:51:22.465Z,6.80
2017-11-22T01:53:50.797Z,6.80
2017-11-22T01:56:18.485Z,6.80
2017-11-22T01:58:47.553Z,6.80
2017-11-22T02:01:15.137Z,6.80
2017-11-22T02:03:43.805Z,6.80
2017-11-22T02:06:11.425Z,6.70
2017-11-22T02:08:40.750Z,6.70
2017-11-22T02:11:08.414Z,6.70
2017-11-22T02:13:36.278Z,6.70
2017-11-22T02:16:04.146Z,6.70
2017-11-22T02:18:32.218Z,6.70
2017-11-22T02:20:59.867Z,6.60
2017-11-22T02:23:27.689Z,6.60
2017-11-22T02:25:55.282Z,6.60
2017-11-22T02:28:22.860Z,6.60
2017-11-22T02:30:50.445Z,6.60
2017-11-22T02:33:18.217Z,6.60
2017-11-22T02:35:45.782Z,6.60
2017-11-22T02:38:13.349Z,6.60
2017-11-22T02:40:40.949Z,6.60
2017-11-22T02:43:08.512Z,6.50
2017-11-22T02:45:36.105Z,6.50
2017-11-22T02:48:03.666Z,6.50
2017-11-22T02:50:31.853Z,6.50
2017-11-22T02:52:59.430Z,6.50
2017-11-22T02:55:26.996Z,6.50
2017-11-22T02:57:54.584Z,6.50
2017-11-22T03:00:22.925Z,6.50
2017-11-22T03:02:50.516Z,6.50
2017-11-22T03:05:18.845Z,6.50
2017-11-22T03:07:46.512Z,6.50
2017-11-22T03:10:14.084Z,6.50
2017-11-22T03:12:41.649Z,6.50
2017-11-22T03:15:09.238Z,6.50
2017-11-22T03:17:38.721Z,6.50
2017-11-22T03:20:06.285Z,6.50
2017-11-22T03:22:35.665Z,6.50
2017-11-22T03:25:03.254Z,6.50
2017-11-22T03:27:30.822Z,6.50
2017-11-22T03:29:59.201Z,6.50
2017-11-22T03:32:27.529Z,6.50
2017-11-22T03:34:55.129Z,6.50
2017-11-22T03:37:22.733Z,6.50
2017-11-22T03:39:50.307Z,6.50
2017-11-22T03:42:17.886Z,6.50
2017-11-22T03:44:45.484Z,6.50
2017-11-22T03:47:13.924Z,6.50
2017-11-22T03:49:47.315Z,6.50
2017-11-22T03:52:20.601Z,6.50
2017-11-22T03:54:48.163Z,6.50
2017-11-22T03:57:15.769Z,6.50
2017-11-22T03:59:44.116Z,6.50
2017-11-22T04:02:14.504Z,6.50
2017-11-22T04:04:42.857Z,6.40
2017-11-22T04:07:11.185Z,6.40
2017-11-22T04:09:39.801Z,6.40
2017-11-22T04:12:08.145Z,6.40
2017-11-22T04:14:35.739Z,6.40
2017-11-22T04:17:03.304Z,6.40
2017-11-22T04:19:33.025Z,6.40
2017-11-22T04:22:00.588Z,6.40
2017-11-22T04:24:28.250Z,6.40
2017-11-22T04:26:55.845Z,6.50
2017-11-22T04:29:23.405Z,6.50
2017-11-22T04:31:50.996Z,6.50
2017-11-22T04:34:18.561Z,6.40
2017-11-22T04:36:46.890Z,6.40
2017-11-22T04:39:15.217Z,6.40
2017-11-22T04:41:42.814Z,6.40
2017-11-22T04:44:11.189Z,6.40
2017-11-22T04:46:39.893Z,6.40
2017-11-22T04:49:08.248Z,6.40
2017-11-22T04:51:35.808Z,6.40
2017-11-22T04:54:03.397Z,6.40
2017-11-22T04:56:31.977Z,6.40
2017-11-22T04:59:00.306Z,6.50
2017-11-22T05:01:27.874Z,6.50
2017-11-22T05:03:55.460Z,6.50
2017-11-22T05:06:23.030Z,6.50
2017-11-22T05:08:51.396Z,6.50
2017-11-22T05:11:19.010Z,6.50
2017-11-22T05:13:46.910Z,6.50
2017-11-22T05:16:14.486Z,6.50
2017-11-22T05:18:42.118Z,6.50
2017-11-22T05:21:09.681Z,6.50
2017-11-22T05:23:38.196Z,6.50
2017-11-22T05:26:05.773Z,6.50
2017-11-22T05:28:34.134Z,6.50
2017-11-22T05:31:01.702Z,6.50
2017-11-22T05:33:29.324Z,6.60
2017-11-22T05:35:56.894Z,6.50
2017-11-22T05:38:24.891Z,6.50
2017-11-22T05:40:53.238Z,6.50
2017-11-22T05:43:20.824Z,6.50
2017-11-22T05:45:48.409Z,6.50
2017-11-22T05:48:16.053Z,6.50
2017-11-22T05:50:43.641Z,6.50
2017-11-22T05:53:11.970Z,6.40
2017-11-22T05:55:40.918Z,6.40
2017-11-22T05:58:08.478Z,6.40
2017-11-22T06:00:41.850Z,6.40
2017-11-22T06:03:09.413Z,6.40
2017-11-22T06:05:38.690Z,6.40
2017-11-22T06:08:06.252Z,6.40
2017-11-22T06:10:33.845Z,6.40
2017-11-22T06:13:02.181Z,6.50
2017-11-22T06:15:29.787Z,6.50
2017-11-22T06:17:58.130Z,6.50
2017-11-22T06:20:25.705Z,6.50
2017-11-22T06:22:53.301Z,6.50
2017-11-22T06:25:20.867Z,6.50
2017-11-22T06:27:48.465Z,6.50
2017-11-22T06:30:30.845Z,6.50
2017-11-22T06:32:58.434Z,6.50
2017-11-22T06:35:26.018Z,6.50
2017-11-22T06:37:53.622Z,6.50
2017-11-22T06:40:21.189Z,6.50
2017-11-22T06:42:49.562Z,6.50
2017-11-22T06:45:17.157Z,6.60
2017-11-22T06:47:44.761Z,6.60
2017-11-22T06:50:13.089Z,6.70
2017-11-22T06:52:40.884Z,6.60
2017-11-22T06:55:08.478Z,6.60
2017-11-22T06:57:36.046Z,6.70
2017-11-22T07:00:03.632Z,6.60
2017-11-22T07:02:36.785Z,6.60
2017-11-22T07:05:05.351Z,6.70
2017-11-22T07:07:33.690Z,6.70
2017-11-22T07:10:01.272Z,6.70
2017-11-22T07:12:28.856Z,6.70
2017-11-22T07:14:57.185Z,6.70
2017-11-22T07:17:29.575Z,6.70
2017-11-22T07:19:57.199Z,6.70
2017-11-22T07:22:24.797Z,6.80
2017-11-22T07:24:52.360Z,6.80
2017-11-22T07:27:19.944Z,6.70
2017-11-22T07:29:47.514Z,6.80
2017-11-22T07:32:16.190Z,6.80
2017-11-22T07:34:43.762Z,6.80
2017-11-22T07:37:17.963Z,6.80
2017-11-22T07:39:45.538Z,6.80
2017-11-22T07:42:13.871Z,6.80
2017-11-22T07:44:41.462Z,6.80
2017-11-22T07:47:11.980Z,6.90
2017-11-22T07:49:40.921Z,6.90
2017-11-22T07:52:14.083Z,6.90
2017-11-22T07:54:41.668Z,6.90
2017-11-22T07:57:11.034Z,7.00
2017-11-22T07:59:39.861Z,7.00
2017-11-22T08:02:08.189Z,7.00
2017-11-22T08:04:35.773Z,7.00
2017-11-22T08:07:04.864Z,7.00
2017-11-22T08:09:34.165Z,7.00
2017-11-22T08:12:01.730Z,7.00
2017-11-22T08:14:29.306Z,7.10
2017-11-22T08:16:57.660Z,7.10
2017-11-22T08:19:25.988Z,7.10
2017-11-22T08:21:53.809Z,7.10
2017-11-22T08:24:22.877Z,7.10
2017-11-22T08:26:50.441Z,7.10
2017-11-22T08:29:18.034Z,7.20
2017-11-22T08:31:46.418Z,7.20
2017-11-22T08:34:14.746Z,7.20
2017-11-22T08:36:42.350Z,7.20
2017-11-22T08:39:09.940Z,7.20
2017-11-22T08:41:39.680Z,7.20
2017-11-22T08:44:07.292Z,7.20
2017-11-22T08:46:34.852Z,7.20
2017-11-22T08:49:02.444Z,7.20
2017-11-22T08:51:30.006Z,7.30
2017-11-22T08:53:57.589Z,7.30
2017-11-22T08:56:30.990Z,7.30
2017-11-22T08:58:58.705Z,7.40
2017-11-22T09:01:26.341Z,7.40
2017-11-22T09:03:53.925Z,7.50
2017-11-22T09:06:27.950Z,7.50
2017-11-22T09:08:56.305Z,7.50
2017-11-22T09:11:23.877Z,7.50
2017-11-22T09:13:52.229Z,7.60
2017-11-22T09:16:19.802Z,7.60
2017-11-22T09:18:56.122Z,7.70
2017-11-22T09:21:23.680Z,7.80
2017-11-22T09:26:45.742Z,7.90
2017-11-22T09:29:13.330Z,7.90
2017-11-22T09:31:46.569Z,8.10
2017-11-22T09:34:19.937Z,8.10
2017-11-22T09:36:47.501Z,8.20
2017-11-22T09:39:15.853Z,8.30
2017-11-22T09:41:43.412Z,8.30
2017-11-22T09:44:11.094Z,8.40
2017-11-22T09:46:39.786Z,8.30
2017-11-22T09:49:08.129Z,8.30
2017-11-22T09:51:35.723Z,8.30
2017-11-22T09:54:03.288Z,8.40
2017-11-22T09:56:30.876Z,8.40
2017-11-22T09:58:58.439Z,8.50
2017-11-22T10:01:26.026Z,8.40
2017-11-22T10:03:53.613Z,8.40
2017-11-22T10:06:21.198Z,8.50
2017-11-22T10:08:49.533Z,8.60
2017-11-22T10:11:17.325Z,8.60
2017-11-22T10:13:45.657Z,8.70
2017-11-22T10:16:13.226Z,8.70
2017-11-22T10:18:41.005Z,8.70
2017-11-22T10:21:08.565Z,8.70
2017-11-22T10:23:36.145Z,8.60
2017-11-22T10:26:03.714Z,8.60
2017-11-22T10:28:31.317Z,8.60
2017-11-22T10:30:58.882Z,8.70
2017-11-22T10:33:32.241Z,8.70
2017-11-22T10:35:59.806Z,8.70
2017-11-22T10:38:28.137Z,8.70
2017-11-22T10:40:55.724Z,8.70
2017-11-22T10:43:23.282Z,8.70
2017-11-22T10:45:50.874Z,8.70
2017-11-22T10:48:19.197Z,8.70
2017-11-22T10:50:46.776Z,8.70
2017-11-22T10:53:14.337Z,8.70
2017-11-22T10:55:41.941Z,8.70
2017-11-22T10:58:10.269Z,8.60
2017-11-22T11:00:39.761Z,8.60
2017-11-22T11:03:07.353Z,8.60
2017-11-22T11:05:35.693Z,8.60
2017-11-22T11:08:03.277Z,8.60
2017-11-22T11:10:30.838Z,8.60
2017-11-22T11:12:58.438Z,8.50
2017-11-22T11:15:26.765Z,8.50
2017-11-22T11:17:54.357Z,8.50
2017-11-22T11:20:21.921Z,8.50
2017-11-22T11:22:50.390Z,8.40
2017-11-22T11:25:17.966Z,8.40
2017-11-22T11:27:45.529Z,8.40
2017-11-22T11:30:13.897Z,8.20
2017-11-22T11:32:41.569Z,8.20
2017-11-22T11:35:09.128Z,8.10
2017-11-22T11:37:36.741Z,8.00
2017-11-22T11:40:04.334Z,8.00
2017-11-22T11:42:32.693Z,7.90
2017-11-22T11:45:00.273Z,7.90
2017-11-22T11:47:27.838Z,7.90
2017-11-22T11:49:55.522Z,7.90
2017-11-22T11:52:23.858Z,8.00
2017-11-22T11:54:51.450Z,8.00
2017-11-22T11:57:19.020Z,8.00
2017-11-22T11:59:46.606Z,8.10
2017-11-22T12:02:14.201Z,8.10
2017-11-22T12:04:41.804Z,8.10
2017-11-22T12:07:09.373Z,8.20
2017-11-22T12:09:38.862Z,8.20
2017-11-22T12:12:07.209Z,8.20
2017-11-22T12:14:35.461Z,8.20
2017-11-22T12:17:03.070Z,8.30
2017-11-22T12:19:30.645Z,8.30
2017-11-22T12:22:03.905Z,8.30
2017-11-22T12:24:31.477Z,8.40
2017-11-22T12:26:59.340Z,8.40
2017-11-22T12:29:27.209Z,8.40
2017-11-22T12:31:54.822Z,8.40
2017-11-22T12:34:22.384Z,8.40
2017-11-22T12:36:49.988Z,8.40
2017-11-22T12:39:17.785Z,8.50
2017-11-22T12:41:45.373Z,8.50
2017-11-22T12:44:28.252Z,8.50
2017-11-22T12:46:56.637Z,8.50
2017-11-22T12:49:24.201Z,8.50
2017-11-22T12:51:52.560Z,8.50
2017-11-22T12:54:20.126Z,8.50
2017-11-22T12:56:47.722Z,8.50
2017-11-22T12:59:16.050Z,8.60
2017-11-22T13:01:43.641Z,8.50
2017-11-22T13:04:11.217Z,8.50
2017-11-22T13:06:40.697Z,8.50
2017-11-22T13:09:08.257Z,8.50
2017-11-22T13:11:41.897Z,8.40
2017-11-22T13:14:09.470Z,8.50
2017-11-22T13:16:37.959Z,8.50
2017-11-22T13:19:05.545Z,8.50
2017-11-22T13:21:33.115Z,8.60
2017-11-22T13:24:00.733Z,8.80
2017-11-22T13:26:28.294Z,9.00
2017-11-22T13:28:55.861Z,9.00
2017-11-22T13:31:23.453Z,9.00
2017-11-22T13:33:51.018Z,9.00
2017-11-22T13:36:18.697Z,9.20
2017-11-22T13:38:46.370Z,10.00
2017-11-22T13:41:14.026Z,10.60
2017-11-22T13:43:41.589Z,11.00
2017-11-22T13:46:09.256Z,11.00
2017-11-22T13:48:38.513Z,10.50
2017-11-22T13:51:06.113Z,10.50
2017-11-22T13:53:33.677Z,10.00
2017-11-22T13:56:01.445Z,9.60
2017-11-22T13:58:29.001Z,9.40
2017-11-22T14:00:56.570Z,8.90
2017-11-22T14:03:24.925Z,8.60
2017-11-22T14:05:52.490Z,8.60
2017-11-22T14:08:20.078Z,8.50
2017-11-22T14:10:48.409Z,8.40
2017-11-22T14:13:16.009Z,8.40
2017-11-22T14:15:44.341Z,8.40
2017-11-22T14:18:11.926Z,8.30
2017-11-22T14:20:41.014Z,8.30
2017-11-22T14:23:08.605Z,8.30
2017-11-22T14:25:36.937Z,8.40
2017-11-22T14:28:04.637Z,8.40
2017-11-22T14:30:32.207Z,8.50
2017-11-22T14:33:00.537Z,8.50
2017-11-22T14:35:28.121Z,8.40
2017-11-22T14:37:55.714Z,8.40
2017-11-22T14:40:24.070Z,8.30
2017-11-22T14:42:53.136Z,8.30
2017-11-22T14:45:20.730Z,8.30
2017-11-22T14:47:48.591Z,8.30
2017-11-22T14:50:16.183Z,8.30
2017-11-22T14:52:44.529Z,8.30
2017-11-22T14:55:12.118Z,8.20
2017-11-22T14:57:40.964Z,8.20
2017-11-22T15:00:08.992Z,8.10
2017-11-22T15:02:38.265Z,8.00
2017-11-22T15:05:05.830Z,7.90
2017-11-22T15:07:34.163Z,7.90
2017-11-22T15:10:01.733Z,7.90
2017-11-22T15:12:29.297Z,7.80
2017-11-22T15:14:56.889Z,7.70
2017-11-22T15:17:24.457Z,7.60
2017-11-22T15:19:52.810Z,7.50
2017-11-22T15:22:20.383Z,7.50
2017-11-22T15:24:48.052Z,7.40
2017-11-22T15:27:15.617Z,7.40
2017-11-22T15:29:44.121Z,7.30
2017-11-22T15:32:11.815Z,7.30
2017-11-22T15:34:41.627Z,7.30
2017-11-22T15:37:09.214Z,7.30
2017-11-22T15:39:39.209Z,7.20
2017-11-22T15:42:06.802Z,7.20
2017-11-22T15:44:34.370Z,7.20
2017-11-22T15:47:01.962Z,7.20
2017-11-22T15:49:29.526Z,7.10
2017-11-22T15:51:57.120Z,7.10
2017-11-22T15:54:24.731Z,7.10
2017-11-22T15:56:53.104Z,7.00
2017-11-22T15:59:21.441Z,6.90
2017-11-22T16:01:49.006Z,6.90
2017-11-22T16:04:16.597Z,6.80
2017-11-22T16:06:44.253Z,6.60
2017-11-22T16:09:11.862Z,6.50
2017-11-22T16:11:41.295Z,6.30
2017-11-22T16:14:08.922Z,6.30
2017-11-22T16:16:36.502Z,6.30
2017-11-22T16:19:04.175Z,6.20
2017-11-22T16:21:31.800Z,6.20
2017-11-22T16:23:59.396Z,6.30
2017-11-22T16:26:27.291Z,6.20
2017-11-22T16:28:56.019Z,6.20
2017-11-22T16:31:23.580Z,6.20
2017-11-22T16:33:51.149Z,6.20
2017-11-22T16:36:18.808Z,6.20
2017-11-22T16:38:46.466Z,6.20
2017-11-22T16:41:14.197Z,6.10
2017-11-22T16:43:42.580Z,6.00
2017-11-22T16:46:10.146Z,6.00
2017-11-22T16:48:39.990Z,5.90
2017-11-22T16:51:07.610Z,5.90
2017-11-22T16:53:35.402Z,5.90
2017-11-22T16:56:03.775Z,5.90
2017-11-22T16:58:32.151Z,5.90
2017-11-22T17:01:00.622Z,5.90
2017-11-22T17:03:28.199Z,5.90
2017-11-22T17:05:56.558Z,6.20
2017-11-22T17:08:25.699Z,6.10
2017-11-22T17:10:53.379Z,6.10
2017-11-22T17:13:20.985Z,6.10
2017-11-22T17:15:48.578Z,6.00
2017-11-22T17:18:16.140Z,6.10
2017-11-22T17:20:44.612Z,6.10
2017-11-22T17:23:12.282Z,6.10
2017-11-22T17:25:40.760Z,6.00
2017-11-22T17:28:08.375Z,5.90
2017-11-22T17:30:36.229Z,5.90
2017-11-22T17:33:03.797Z,5.90
2017-11-22T17:35:31.408Z,5.90
2017-11-22T17:37:59.071Z,5.90
2017-11-22T17:40:26.680Z,5.90
2017-11-22T17:42:54.273Z,5.90
2017-11-22T17:45:22.653Z,5.90
2017-11-22T17:47:51.475Z,5.80
2017-11-22T17:50:19.127Z,5.80
2017-11-22T17:52:46.853Z,5.90
2017-11-22T17:55:14.442Z,5.90
2017-11-22T17:57:42.821Z,5.80
2017-11-22T18:00:10.708Z,5.80
2017-11-22T18:02:40.691Z,5.60
2017-11-22T18:05:08.387Z,5.60
2017-11-22T18:07:36.133Z,5.60
2017-11-22T18:10:08.314Z,5.50
2017-11-22T18:12:36.183Z,5.50
2017-11-22T18:15:03.780Z,5.40
2017-11-22T18:17:31.390Z,5.40
2017-11-22T18:20:00.021Z,5.40
2017-11-22T18:22:27.726Z,5.40
2017-11-22T18:24:56.108Z,5.50
2017-11-22T18:27:24.564Z,5.50
2017-11-22T18:29:52.162Z,5.50
2017-11-22T18:32:20.521Z,5.30
2017-11-22T18:34:48.185Z,5.30
2017-11-22T18:37:15.796Z,5.30
2017-11-22T18:39:43.491Z,5.20
2017-11-22T18:42:11.156Z,5.20
2017-11-22T18:44:40.732Z,5.20
2017-11-22T18:47:08.340Z,5.20
2017-11-22T18:49:35.971Z,5.20
2017-11-22T18:52:03.609Z,5.20
2017-11-22T18:54:31.206Z,5.20
2017-11-22T18:56:58.828Z,5.20
2017-11-22T18:59:26.534Z,5.20
2017-11-22T19:01:54.159Z,5.20
2017-11-22T19:04:21.775Z,5.30
2017-11-22T19:06:49.417Z,5.30
2017-11-22T19:09:16.998Z,5.30
2017-11-22T19:11:44.660Z,5.30
2017-11-22T19:14:12.221Z,5.30
2017-11-22T19:16:41.730Z,5.20
2017-11-22T19:19:09.458Z,5.20
2017-11-22T19:21:38.062Z,5.10
2017-11-22T19:24:05.688Z,5.00
2017-11-22T19:26:33.620Z,4.80
2017-11-22T19:29:02.003Z,4.80
2017-11-22T19:31:30.380Z,4.80
2017-11-22T19:33:59.613Z,4.70
2017-11-22T19:36:27.538Z,4.70
2017-11-22T19:38:55.948Z,4.60
2017-11-22T19:41:23.749Z,4.60
2017-11-22T19:43:51.515Z,4.70
2017-11-22T19:46:19.157Z,4.80
2017-11-22T19:48:46.804Z,4.80
2017-11-22T19:51:14.431Z,4.80
2017-11-22T19:53:42.092Z,4.70
2017-11-22T19:56:09.713Z,4.60
2017-11-22T19:58:38.221Z,4.60
2017-11-22T20:01:05.793Z,4.60
2017-11-22T20:03:33.811Z,4.50
2017-11-22T20:06:01.453Z,4.50
2017-11-22T20:08:41.925Z,4.70
2017-11-22T20:11:10.735Z,4.70
2017-11-22T20:13:39.953Z,4.60
2017-11-22T20:16:07.598Z,4.70
2017-11-22T20:18:35.211Z,4.60
2017-11-22T20:21:02.959Z,4.50
2017-11-22T20:23:30.575Z,4.50
2017-11-22T20:25:58.500Z,4.40
2017-11-22T20:28:26.108Z,4.40
2017-11-22T20:30:53.766Z,4.30
2017-11-22T20:33:21.408Z,4.30
2017-11-22T20:35:49.778Z,4.40
2017-11-22T20:38:17.516Z,4.30
2017-11-22T20:40:45.132Z,4.50
2017-11-22T20:43:12.873Z,4.50
2017-11-22T20:45:40.854Z,4.50
2017-11-22T20:48:09.236Z,4.50
2017-11-22T20:50:38.551Z,4.50
2017-11-22T20:53:06.159Z,4.50
2017-11-22T20:55:33.787Z,4.60
2017-11-22T20:58:01.397Z,4.60
2017-11-22T21:00:29.806Z,4.60
2017-11-22T21:02:57.444Z,4.60
2017-11-22T21:05:25.079Z,4.60
2017-11-22T21:07:52.730Z,4.60
2017-11-22T21:10:20.393Z,4.60
2017-11-22T21:12:47.994Z,4.80
2017-11-22T21:15:15.621Z,4.90
2017-11-22T21:17:43.265Z,4.90
2017-11-22T21:20:10.871Z,5.00
2017-11-22T21:22:39.884Z,5.00
2017-11-22T21:25:08.277Z,4.90
2017-11-22T21:27:36.647Z,4.90
2017-11-22T21:30:05.006Z,4.80
2017-11-22T21:32:32.625Z,4.80
2017-11-22T21:35:00.263Z,4.80
2017-11-22T21:37:27.886Z,4.80
2017-11-22T21:39:55.707Z,4.80
2017-11-22T21:42:23.371Z,4.90
2017-11-22T21:44:50.979Z,4.90
2017-11-22T21:47:18.616Z,5.00
2017-11-22T21:49:46.268Z,5.00
2017-11-22T21:52:13.870Z,5.00
2017-11-22T21:54:41.488Z,5.00
2017-11-22T21:57:09.123Z,5.10
2017-11-22T21:59:36.798Z,5.10
2017-11-22T22:02:04.385Z,5.00
2017-11-22T22:04:31.995Z,5.00
2017-11-22T22:07:00.349Z,4.90
2017-11-22T22:09:29.467Z,4.90
2017-11-22T22:11:57.872Z,5.00
2017-11-22T22:14:25.483Z,5.00
2017-11-22T22:16:53.161Z,5.00
2017-11-22T22:19:21.617Z,5.10
2017-11-22T22:21:49.188Z,5.10
2017-11-22T22:24:16.819Z,5.00
2017-11-22T22:26:44.424Z,5.00
2017-11-22T22:29:12.088Z,5.00
2017-11-22T22:31:40.867Z,5.00
2017-11-22T22:34:08.543Z,5.00
2017-11-22T22:36:36.150Z,5.00
2017-11-22T22:39:03.755Z,5.00
2017-11-22T22:41:31.395Z,5.00
2017-11-22T22:46:32.903Z,4.90
2017-11-22T22:49:00.760Z,4.90
2017-11-22T22:51:28.368Z,5.00
2017-11-22T22:53:55.978Z,5.10
2017-11-22T22:56:23.612Z,5.30
2017-11-22T22:58:51.223Z,5.40
2017-11-22T23:01:19.667Z,5.40
2017-11-22T23:03:47.275Z,5.30
2017-11-22T23:06:15.630Z,5.20
2017-11-22T23:08:43.199Z,5.20
2017-11-22T23:11:11.557Z,5.10
2017-11-22T23:13:41.886Z,5.00
2017-11-22T23:16:09.700Z,5.00
2017-11-22T23:18:38.227Z,5.00
2017-11-22T23:21:05.789Z,4.90
2017-11-22T23:23:33.377Z,4.80
2017-11-22T23:26:01.790Z,4.80
2017-11-22T23:28:29.421Z,4.80
2017-11-22T23:30:57.757Z,4.90
2017-11-22T23:33:25.325Z,4.90
2017-11-22T23:35:53.009Z,4.90
2017-11-22T23:38:20.570Z,4.80
2017-11-22T23:40:48.441Z,4.70
2017-11-22T23:43:16.770Z,4.40
2017-11-22T23:45:44.334Z,4.40
2017-11-22T23:48:12.045Z,4.20
2017-11-22T23:50:41.022Z,4.00
2017-11-22T23:53:08.884Z,4.00
2017-11-22T23:55:36.665Z,3.80
2017-11-22T23:58:04.233Z,3.70
